Flight Track Log - Related Links

Times and Time Zones

All times are in EDT time to prevent confusion due to time zone crossing. See the UPS1057 flight status page for this flight to view local times or setup timezone preferences in your user account.

Time Position Orientation Groundspeed Altitude Reporting Facility
EDT Latitude Longitude Course Direction KTS MPH feet Rate Location/Type
Wed 09:30:04 PM 42.9100 -71.4240 175° South 163 188 1,900  Level FlightAware ADS-B
Wed 09:30:29 PM 42.8930 -71.4340 203° Southwest 183 211 2,800 2,100 Climbing FlightAware ADS-B
Wed 09:30:44 PM 42.8890 -71.4480 249° West 200 230 3,300 2,250 Climbing FlightAware ADS-B
Wed 09:31:09 PM 42.8900 -71.4830 272° West 208 239 4,300 2,400 Climbing FlightAware ADS-B
Wed 09:31:39 PM 42.8930 -71.5230 276° West 216 249 5,500 2,400 Climbing FlightAware ADS-B
Wed 09:31:49 PM 42.8940 -71.5360 276° West 217 250 5,900 2,400 Climbing FlightAware ADS-B
Wed 09:32:34 PM 42.9090 -71.6040 287° West 266 306 7,700 2,618 Climbing FlightAware ADS-B
Wed 09:32:44 PM 42.9150 -71.6210 296° West 269 310 8,300 3,164 Climbing FlightAware ADS-B
Wed 09:33:29 PM 42.9410 -71.6880 298° West 283 326 10,600 2,667 Climbing FlightAware ADS-B
Wed 09:34:14 PM 42.9580 -71.7750 285° West 335 386 12,300 2,138 Climbing FlightAware ADS-B
Wed 09:34:56 PM 42.9620 -71.8650 274° West 391 450 13,700 2,682 Climbing FlightAware ADS-B
Wed 09:35:39 PM 42.9640 -71.9750 271° West 414 476 16,100 3,462 Climbing FlightAware ADS-B
Wed 09:36:14 PM 42.9670 -72.0700 273° West 426 490 18,200 3,300 Climbing FlightAware ADS-B
Wed 09:36:59 PM 42.9690 -72.1820 271° West 436 502 20,500 3,068 Climbing FlightAware ADS-B
Wed 09:37:42 PM 42.9730 -72.3150 272° West 449 517 22,700 2,082 Climbing FlightAware ADS-B
Wed 09:38:37 PM 42.9760 -72.4650 272° West 455 524 23,900 1,560 Climbing FlightAware ADS-B
Wed 09:39:22 PM 42.9800 -72.6030 272° West 459 528 25,300 1,133 Climbing FlightAware ADS-B
Wed 09:40:07 PM 42.9820 -72.7230 271° West 460 529 25,600 222 Climbing FlightAware ADS-B
Wed 09:40:43 PM 42.9830 -72.8120 271° West 460 529 25,600  Level FlightAware ADS-B
Wed 09:41:34 PM 42.9850 -72.9380 271° West 460 529 25,600  Level FlightAware ADS-B
Wed 09:42:23 PM 42.9860 -73.0590 271° West 460 529 25,600  Level FlightAware ADS-B
Wed 09:42:57 PM 42.9870 -73.1430 271° West 460 529 25,600 2,505 Level FlightAware ADS-B
Wed 09:43:54 PM 42.9690 -73.3960 265° West 446 513 29,400 3,563 Climbing FlightAware ADS-B
Wed 09:44:33 PM 42.9260 -73.4930 239° Southwest 442 509 31,300 1,835 Climbing FlightAware ADS-B
Wed 09:45:19 PM 42.8760 -73.6010 238° Southwest 453 521 32,000 400 Climbing FlightAware ADS-B
Wed 09:46:18 PM 42.8160 -73.7290 237° Southwest 456 525 32,000  Level FlightAware ADS-B
Wed 09:46:56 PM 42.7680 -73.8340 238° Southwest 452 520 32,000  Level FlightAware ADS-B
Wed 09:47:36 PM 42.7240 -73.9290 238° Southwest 450 518 32,000 1,129 Level FlightAware ADS-B
Wed 09:48:21 PM 42.6770 -74.0310 238° Southwest 442 509 33,600 2,442 Climbing FlightAware ADS-B
Wed 09:49:02 PM 42.6280 -74.1360 238° Southwest 434 499 35,500 1,694 Climbing FlightAware ADS-B
Wed 09:49:46 PM 42.5790 -74.2390 237° Southwest 431 496 36,000 357 Climbing FlightAware ADS-B
Wed 09:50:26 PM 42.5370 -74.3270 237° Southwest 429 494 36,000  Level FlightAware ADS-B
Wed 09:51:10 PM 42.4890 -74.4290 237° Southwest 430 495 36,000  Level FlightAware ADS-B
Wed 09:51:45 PM 42.4520 -74.5060 237° Southwest 432 497 36,000  Level FlightAware ADS-B
Wed 09:52:24 PM 42.4095 -74.5973 238° Southwest 434 499 36,000  Level FlightAware ADS-B
Wed 09:53:03 PM 42.3665 -74.6862 237° Southwest 434 499 36,000  Level FlightAware ADS-B
Wed 09:53:33 PM 42.3338 -74.7545 237° Southwest 433 498 36,000  Level FlightAware ADS-B
Wed 09:54:05 PM 42.2996 -74.8269 237° Southwest 432 497 36,000  Level FlightAware ADS-B
Wed 09:54:35 PM 42.2669 -74.8945 237° Southwest 430 495 36,000  Level FlightAware ADS-B
Wed 09:55:06 PM 42.2337 -74.9642 237° Southwest 429 494 36,000  Level FlightAware ADS-B
Wed 09:55:48 PM 42.1890 -75.0560 237° Southwest 427 491 36,000  Level FlightAware ADS-B
Wed 09:56:13 PM 42.1607 -75.1138 237° Southwest 427 491 36,000  Level FlightAware ADS-B
Wed 09:56:49 PM 42.1221 -75.1938 237° Southwest 426 490 36,000  Level FlightAware ADS-B
Wed 09:57:21 PM 42.0879 -75.2648 237° Southwest 426 490 36,000  Level FlightAware ADS-B
Wed 09:57:56 PM 42.0515 -75.3437 238° Southwest 426 490 36,000  Level FlightAware ADS-B
Wed 09:58:27 PM 42.0220 -75.4151 241° Southwest 426 490 36,000  Level FlightAware ADS-B
Wed 09:58:57 PM 41.9933 -75.4847 241° Southwest 426 490 36,000  Level FlightAware ADS-B
Wed 09:59:28 PM 41.9641 -75.5568 241° Southwest 428 493 36,000  Level FlightAware ADS-B
Wed 09:59:59 PM 41.9342 -75.6289 241° Southwest 428 493 36,000  Level FlightAware ADS-B
Wed 10:00:33 PM 41.9014 -75.7078 241° Southwest 427 491 36,000  Level FlightAware ADS-B
Wed 10:01:03 PM 41.8721 -75.7775 241° Southwest 428 493 36,000  Level FlightAware ADS-B
Wed 10:01:35 PM 41.8415 -75.8515 241° Southwest 428 493 36,000  Level FlightAware ADS-B
Wed 10:02:06 PM 41.8114 -75.9233 241° Southwest 428 493 36,000  Level FlightAware ADS-B
Wed 10:02:36 PM 41.7820 -75.9926 240° Southwest 428 493 36,000  Level FlightAware ADS-B
Wed 10:03:07 PM 41.7522 -76.0644 241° Southwest 429 494 36,000  Level FlightAware ADS-B
Wed 10:03:38 PM 41.7223 -76.1360 241° Southwest 429 494 36,000  Level FlightAware ADS-B
Wed 10:04:09 PM 41.6919 -76.2075 240° Southwest 428 493 36,000  Level FlightAware ADS-B
Wed 10:04:39 PM 41.6627 -76.2768 241° Southwest 429 494 36,000  Level FlightAware ADS-B
Wed 10:05:15 PM 41.6281 -76.3597 241° Southwest 429 494 36,000  Level FlightAware ADS-B
Wed 10:05:45 PM 41.5986 -76.4286 240° Southwest 429 494 36,000  Level FlightAware ADS-B
Wed 10:06:16 PM 41.5678 -76.5000 240° Southwest 430 495 36,000  Level FlightAware ADS-B
Wed 10:06:48 PM 41.5368 -76.5739 241° Southwest 431 496 36,000  Level FlightAware ADS-B
Wed 10:07:18 PM 41.5066 -76.6432 240° Southwest 431 496 36,000  Level FlightAware ADS-B
Wed 10:07:50 PM 41.4753 -76.7173 241° Southwest 433 498 36,000  Level FlightAware ADS-B
Wed 10:08:20 PM 41.4449 -76.7869 240° Southwest 435 501 36,000  Level FlightAware ADS-B
Wed 10:08:52 PM 41.4134 -76.8611 241° Southwest 434 499 36,000  Level FlightAware ADS-B
Wed 10:09:14 PM 41.3925 -76.9128 242° Southwest 434 499 36,000  Level FlightAware ADS-B
Wed 10:09:46 PM 41.3696 -76.9927 249° West 436 502 36,000  Level FlightAware ADS-B
Wed 10:09:52 PM 41.3664 -77.0083 255° West 436 502 36,000  Level FlightAware ADS-B
Wed 10:10:14 PM 41.3557 -77.0655 256° West 436 502 36,000  Level FlightAware ADS-B
Wed 10:10:45 PM 41.3400 -77.1458 255° West 437 503 36,000  Level FlightAware ADS-B
Wed 10:11:15 PM 41.3246 -77.2238 255° West 437 503 36,000  Level FlightAware ADS-B
Wed 10:11:45 PM 41.3094 -77.3017 255° West 437 503 36,000  Level FlightAware ADS-B
Wed 10:12:56 PM 41.2760 -77.4760 256° West 437 503 36,000  Level FlightAware ADS-B
Wed 10:13:31 PM 41.2580 -77.5640 255° West 438 504 36,000  Level FlightAware ADS-B
Wed 10:14:11 PM 41.2380 -77.6710 256° West 438 504 36,000  Level FlightAware ADS-B
Wed 10:14:51 PM 41.2180 -77.7720 255° West 438 504 36,000  Level FlightAware ADS-B
Wed 10:15:26 PM 41.1990 -77.8690 255° West 439 505 36,000  Level FlightAware ADS-B
Wed 10:16:06 PM 41.1790 -77.9680 255° West 439 505 36,000  Level FlightAware ADS-B
Wed 10:16:51 PM 41.1550 -78.0870 255° West 438 504 36,000  Level FlightAware ADS-B
Wed 10:17:36 PM 41.1250 -78.2040 251° West 437 503 36,000  Level FlightAware ADS-B
Wed 10:18:16 PM 41.0980 -78.2990 249° West 436 502 36,000  Level FlightAware ADS-B
Wed 10:18:56 PM 41.0680 -78.4040 249° West 437 503 36,000  Level FlightAware ADS-B
Wed 10:19:41 PM 41.0350 -78.5140 248° West 437 503 36,000  Level FlightAware ADS-B
Wed 10:20:16 PM 41.0090 -78.6010 248° West 437 503 36,000  Level FlightAware ADS-B
Wed 10:20:56 PM 40.9790 -78.7030 249° West 437 503 36,000  Level FlightAware ADS-B
Wed 10:21:41 PM 40.9470 -78.8130 249° West 437 503 36,000  Level FlightAware ADS-B
Wed 10:22:21 PM 40.9210 -78.9020 249° West 435 501 36,000  Level FlightAware ADS-B
Wed 10:22:56 PM 40.8920 -79.0010 249° West 434 499 36,000  Level FlightAware ADS-B
Wed 10:23:41 PM 40.8600 -79.1100 249° West 433 498 36,000  Level FlightAware ADS-B
Wed 10:24:21 PM 40.8290 -79.2100 248° West 432 497 36,000  Level FlightAware ADS-B
Wed 10:25:01 PM 40.8000 -79.3090 249° West 431 496 36,000  Level FlightAware ADS-B
Wed 10:25:46 PM 40.7700 -79.4110 249° West 430 495 36,000  Level FlightAware ADS-B
Wed 10:26:26 PM 40.7410 -79.5060 248° West 430 495 36,000  Level FlightAware ADS-B
Wed 10:27:12 PM 40.7020 -79.6350 248° West 430 495 36,000  Level FlightAware ADS-B
Wed 10:27:44 PM 40.6790 -79.7130 249° West 429 494 36,000  Level FlightAware ADS-B
Wed 10:28:28 PM 40.6470 -79.8170 248° West 429 494 36,000  Level FlightAware ADS-B
Wed 10:29:08 PM 40.6170 -79.9140 248° West 428 493 36,000  Level FlightAware ADS-B
Wed 10:29:42 PM 40.5920 -79.9960 248° West 428 493 36,000  Level FlightAware ADS-B
Wed 10:30:28 PM 40.5580 -80.1040 248° West 427 491 36,000  Level FlightAware ADS-B
Wed 10:31:06 PM 40.5310 -80.1950 249° West 427 491 36,000  Level FlightAware ADS-B
Wed 10:31:51 PM 40.4980 -80.3010 248° West 427 491 36,000  Level FlightAware ADS-B
Wed 10:32:31 PM 40.4660 -80.4020 247° West 426 490 36,000  Level FlightAware ADS-B
Wed 10:33:12 PM 40.4350 -80.5020 248° West 425 489 36,000  Level FlightAware ADS-B
Wed 10:33:57 PM 40.4020 -80.6090 248° West 425 489 36,000  Level FlightAware ADS-B
Wed 10:34:33 PM 40.3740 -80.6950 247° West 426 490 36,000  Level FlightAware ADS-B
Wed 10:35:13 PM 40.3440 -80.7910 248° West 427 491 36,000  Level FlightAware ADS-B
Wed 10:35:54 PM 40.3130 -80.8890 247° West 427 491 36,000  Level FlightAware ADS-B
Wed 10:36:28 PM 40.2870 -80.9700 247° West 427 491 36,000  Level FlightAware ADS-B
Wed 10:37:11 PM 40.2540 -81.0730 247° West 429 494 36,000  Level FlightAware ADS-B
Wed 10:37:55 PM 40.2210 -81.1790 248° West 430 495 36,000  Level FlightAware ADS-B
Wed 10:38:35 PM 40.1900 -81.2720 246° West 429 494 36,000  Level FlightAware ADS-B
Wed 10:39:18 PM 40.1570 -81.3750 247° West 429 494 36,000  Level FlightAware ADS-B
Wed 10:40:01 PM 40.1230 -81.4800 247° West 429 494 36,000  Level FlightAware ADS-B
Wed 10:40:44 PM 40.0900 -81.5830 247° West 430 495 36,000  Level FlightAware ADS-B
Wed 10:41:16 PM 40.0650 -81.6590 247° West 431 496 36,000  Level FlightAware ADS-B
Wed 10:41:59 PM 40.0320 -81.7600 247° West 431 496 36,000  Level FlightAware ADS-B
Wed 10:42:40 PM 40.0000 -81.8580 247° West 430 495 36,000  Level FlightAware ADS-B
Wed 10:43:17 PM 39.9710 -81.9460 247° West 429 494 36,000  Level FlightAware ADS-B
Wed 10:43:52 PM 39.9450 -82.0260 247° West 429 494 36,000  Level FlightAware ADS-B
Wed 10:44:40 PM 39.9070 -82.1400 247° West 428 493 36,000  Level FlightAware ADS-B
Wed 10:45:18 PM 39.8760 -82.2320 246° West 428 493 36,000  Level FlightAware ADS-B
Wed 10:46:04 PM 39.8400 -82.3410 247° West 427 491 36,000  Level FlightAware ADS-B
Wed 10:46:45 PM 39.8080 -82.4350 246° West 425 489 36,000  Level FlightAware ADS-B
Wed 10:47:29 PM 39.7730 -82.5400 247° West 424 488 36,000  Level FlightAware ADS-B
Wed 10:48:11 PM 39.7410 -82.6330 246° West 425 489 36,000  Level FlightAware ADS-B
Wed 10:48:45 PM 39.7120 -82.7200 247° West 424 488 36,000  Level FlightAware ADS-B
Wed 10:49:25 PM 39.6810 -82.8110 246° West 424 488 36,000 -214 Level FlightAware ADS-B
Wed 10:50:09 PM 39.6460 -82.9160 247° West 423 487 35,700 -846 Descending FlightAware ADS-B
Wed 10:50:43 PM 39.6190 -82.9950 246° West 428 493 34,900 -1,421 Descending FlightAware ADS-B
Wed 10:51:25 PM 39.5840 -83.0940 245° Southwest 436 502 33,900 -1,429 Descending FlightAware ADS-B
Wed 10:52:07 PM 39.5490 -83.1950 246° West 440 506 32,900 -1,373 Descending FlightAware ADS-B
Wed 10:52:48 PM 39.5160 -83.2920 246° West 444 511 32,000 -1,395 Descending FlightAware ADS-B
Wed 10:53:33 PM 39.4780 -83.4020 246° West 450 518 30,900 -1,395 Descending FlightAware ADS-B
Wed 10:54:14 PM 39.4420 -83.5030 245° Southwest 453 521 30,000 -651 Descending FlightAware ADS-B
Wed 10:54:56 PM 39.4070 -83.6060 246° West 452 520 30,000  Level FlightAware ADS-B
Wed 10:55:40 PM 39.3670 -83.7170 245° Southwest 454 522 30,000  Level FlightAware ADS-B
Wed 10:56:20 PM 39.3330 -83.8160 246° West 455 524 30,000  Level FlightAware ADS-B
Wed 10:57:04 PM 39.2940 -83.9250 245° Southwest 456 525 30,000  Level FlightAware ADS-B
Wed 10:57:46 PM 39.2580 -84.0270 246° West 456 525 30,000  Level FlightAware ADS-B
Wed 10:58:28 PM 39.2220 -84.1280 245° Southwest 457 526 30,000  Level FlightAware ADS-B
Wed 10:59:08 PM 39.1860 -84.2290 245° Southwest 456 525 30,000 -67 Level FlightAware ADS-B
Wed 10:59:57 PM 39.1470 -84.3400 246° West 454 522 29,900 -1,067 Descending FlightAware ADS-B
Wed 11:00:38 PM 39.1060 -84.4510 245° Southwest 457 526 28,400 -2,365 Descending FlightAware ADS-B
Wed 11:01:41 PM 39.0510 -84.6050 245° Southwest 448 516 25,800 -2,923 Descending FlightAware ADS-B
Wed 11:02:35 PM 38.9940 -84.7220 238° Southwest 431 496 22,700 -1,979 Descending FlightAware ADS-B
Wed 11:03:15 PM 38.9460 -84.7840 225° Southwest 431 496 22,700 -3,671 Level FlightAware ADS-B
Wed 11:04:00 PM 38.8630 -84.8520 213° Southwest 415 478 17,500 -4,000 Descending FlightAware ADS-B
Wed 11:04:54 PM 38.7860 -84.9240 216° Southwest 412 474 16,100 -824 Descending FlightAware ADS-B
Wed 11:05:42 PM 38.7230 -84.9830 216° Southwest 412 474 16,100  Level FlightAware ADS-B
Wed 11:06:19 PM 38.6750 -85.0280 216° Southwest 412 474 16,100 -3,205 Level FlightAware ADS-B
Wed 11:06:55 PM 38.6100 -85.0950 219° Southwest 386 444 12,200 -2,786 Descending FlightAware ADS-B
Wed 11:07:43 PM 38.5510 -85.1510 217° Southwest 386 444 12,200 -1,139 Level FlightAware ADS-B
Wed 11:08:14 PM 38.5340 -85.2170 252° West 296 341 10,700 -2,182 Descending FlightAware ADS-B
Wed 11:08:49 PM 38.5190 -85.2700 250° West 273 314 9,800 -1,688 Descending FlightAware ADS-B
Wed 11:09:18 PM 38.5070 -85.3190 253° West 274 315 8,900 -1,627 Descending FlightAware ADS-B
Wed 11:09:48 PM 38.4940 -85.3650 250° West 273 314 8,200 -1,385 Descending FlightAware ADS-B
Wed 11:10:10 PM 38.4850 -85.3980 251° West 272 313 7,700 -1,385 Descending FlightAware ADS-B
Wed 11:10:40 PM 38.4730 -85.4440 252° West 268 308 7,000 -1,421 Descending FlightAware ADS-B
Wed 11:11:26 PM 38.4550 -85.5110 251° West 267 307 5,900 -1,448 Descending FlightAware ADS-B
Wed 11:11:38 PM 38.4500 -85.5290 250° West 267 307 5,600 -1,571 Descending FlightAware ADS-B
Wed 11:12:08 PM 38.4380 -85.5750 252° West 265 305 4,800 -1,345 Descending FlightAware ADS-B
Wed 11:12:36 PM 38.4270 -85.6150 251° West 262 302 4,300 -1,071 Descending FlightAware ADS-B
Wed 11:13:04 PM 38.4160 -85.6570 252° West 253 291 3,800 -536 Descending FlightAware ADS-B
Wed 11:13:32 PM 38.4060 -85.6920 250° West 224 258 3,800  Level FlightAware ADS-B
Wed 11:14:00 PM 38.3970 -85.7260 251° West 207 238 3,800  Level FlightAware ADS-B
Wed 11:14:22 PM 38.3900 -85.7520 251° West 209 241 3,800  Level FlightAware ADS-B
Wed 11:14:42 PM 38.3800 -85.7720 237° Southwest 192 221 3,800 -214 Level FlightAware ADS-B
Wed 11:14:50 PM 38.3740 -85.7770 213° Southwest 187 215 3,700 -333 Descending FlightAware ADS-B
Wed 11:15:18 PM 38.3530 -85.7840 195° South 165 190 3,600 -310 Descending FlightAware ADS-B
Wed 11:15:48 PM 38.3300 -85.7800 172° South 168 193 3,400 -724 Descending FlightAware ADS-B
Wed 11:16:16 PM 38.3080 -85.7730 166° South 165 190 2,900 -1,071 Descending FlightAware ADS-B
Wed 11:16:44 PM 38.2880 -85.7660 165° South 163 188 2,400 -931 Descending FlightAware ADS-B
Wed 11:17:14 PM 38.2660 -85.7590 166° South 159 183 2,000 -818 Descending FlightAware ADS-B
Wed 11:17:28 PM 38.2570 -85.7550 161° South 147 169 1,800 -857 Descending FlightAware ADS-B
Wed 11:17:56 PM 38.2400 -85.7500 167° South 121 139 1,400 -750 Descending FlightAware ADS-B
Wed 11:18:08 PM 38.2330 -85.7470 161° South 122 140 1,300 -600 Descending FlightAware ADS-B
Wed 11:18:36 PM 38.2180 -85.7420 165° South 124 143 1,000 -643 Descending FlightAware ADS-B
Wed 11:19:04 PM 38.2020 -85.7360 164° South 126 145 700 -621 Descending FlightAware ADS-B
Wed 11:19:34 PM 38.1860 -85.7310 166° South 132 152 400 -600 Descending FlightAware ADS-B
Wed 11:20:04 PM 38.1720 -85.7260 164° South 45 52 -800 Descending FlightAware ADS-B
Wed 11:21:40 PM 38.1720 -85.7280 270° West 21 24  Level FlightAware ADS-B
Wed 11:22:38 PM 38.1760 -85.7330 316° Northwest 27 31  Level FlightAware ADS-B
Wed 11:23:06 PM 38.1770 -85.7370 288° West 33 38  Level FlightAware ADS-B
Wed 11:23:30 PM 38.1780 -85.7410 288° West 25 29  Level FlightAware ADS-B
Wed 11:24:14 PM 38.1770 -85.7430 238° Southwest 16 18  Level FlightAware ADS-B
Wed 11:24:42 PM 38.1750 -85.7420 159° South 24 28  Level FlightAware ADS-B
Wed 11:25:10 PM 38.1720 -85.7410 165° South 34 39  Level FlightAware ADS-B
Wed 11:25:29 PM 38.1710 -85.7410 180° South 25 29  Level FlightAware ADS-B
Wed 11:25:42 PM 38.1710 -85.7400 90° East 24 28  Level FlightAware ADS-B

Login

Don't have an account? Register now (free) for customized features, flight alerts, and more!